Time;durP1;ratioP1;P1;durP2;ratioP2;P2;SDS_P1;SDS_P2;PMS_P1;PMS_P2;Temp;Humidity;BMP_temperature;BMP_pressure;BME280_temperature;BME280_humidity;BME280_pressure;Samples;Min_cycle;Max_cycle;Signal;HPM_P1;HPM_P2
2021/12/26 00:01:42;;;;;;;;;;;20.60;55.30;;;;;;5045367;28;19917;-65
2021/12/26 00:04:13;;;;;;;;;;;20.60;55.30;;;;;;5046761;28;19924;-66
2021/12/26 00:06:38;;;;;;;;;;;20.60;55.30;;;;;;5043368;28;19919;-66
2021/12/26 00:09:04;;;;;;;;;;;20.60;55.70;;;;;;5046967;28;19917;-64
2021/12/26 00:11:29;;;;;;;;;;;20.60;55.20;;;;;;5047204;28;19916;-65
2021/12/26 00:13:55;;;;;;;;;;;20.60;55.30;;;;;;5042041;28;19913;-66
2021/12/26 00:16:21;;;;;;;;;;;20.60;55.20;;;;;;5043736;28;20257;-62
2021/12/26 00:18:47;;;;;;;;;;;20.60;55.30;;;;;;5047581;28;19919;-67
2021/12/26 00:21:14;;;;;;;;;;;20.60;55.20;;;;;;5044613;28;19909;-65
2021/12/26 00:23:39;;;;;;;;;;;20.60;55.20;;;;;;5045475;28;20033;-66
2021/12/26 00:26:05;;;;;;;;;;;20.60;55.20;;;;;;5046541;28;20003;-65
2021/12/26 00:28:30;;;;;;;;;;;20.60;55.20;;;;;;5043481;28;19991;-66
2021/12/26 00:30:57;;;;;;;;;;;20.50;55.10;;;;;;5044297;28;19925;-63
2021/12/26 00:33:23;;;;;;;;;;;20.50;55.10;;;;;;5045326;28;20508;-67
2021/12/26 00:35:49;;;;;;;;;;;20.50;55.20;;;;;;5043223;28;19987;-67
2021/12/26 00:38:15;;;;;;;;;;;20.50;55.10;;;;;;5044030;28;20316;-67
2021/12/26 00:40:40;;;;;;;;;;;20.50;55.10;;;;;;5044178;28;20078;-67
2021/12/26 00:43:06;;;;;;;;;;;20.50;55.10;;;;;;5042039;28;19912;-65
2021/12/26 00:45:32;;;;;;;;;;;20.50;55.10;;;;;;5043557;28;19964;-65
2021/12/26 00:47:57;;;;;;;;;;;20.50;55.10;;;;;;5046029;28;20337;-65
2021/12/26 00:50:26;;;;;;;;;;;20.50;55.10;;;;;;5042306;28;20490;-65
2021/12/26 00:52:51;;;;;;;;;;;20.50;55.10;;;;;;5039835;28;19967;-67
2021/12/26 00:55:17;;;;;;;;;;;20.50;55.10;;;;;;5041575;28;19974;-64
2021/12/26 00:57:43;;;;;;;;;;;20.50;55.10;;;;;;5045107;28;20375;-65
2021/12/26 01:00:11;;;;;;;;;;;20.50;55.10;;;;;;5045992;28;19912;-66
2021/12/26 01:02:36;;;;;;;;;;;20.50;55.10;;;;;;5043750;28;19994;-65
2021/12/26 01:05:03;;;;;;;;;;;20.50;55.10;;;;;;5039452;28;19912;-67
2021/12/26 01:07:51;;;;;;;;;;;20.40;55.00;;;;;;5039236;28;20003;-63
2021/12/26 01:10:17;;;;;;;;;;;20.40;55.00;;;;;;5041365;28;21137;-65
2021/12/26 01:12:42;;;;;;;;;;;20.40;55.00;;;;;;5043601;28;19986;-64
2021/12/26 01:15:10;;;;;;;;;;;20.40;55.00;;;;;;5044155;28;19913;-64
2021/12/26 01:17:36;;;;;;;;;;;20.40;55.00;;;;;;5044518;28;19912;-66
2021/12/26 01:20:06;;;;;;;;;;;20.40;55.00;;;;;;5045957;28;19985;-65
2021/12/26 01:22:31;;;;;;;;;;;20.40;55.00;;;;;;5038359;28;20006;-64
2021/12/26 01:24:57;;;;;;;;;;;20.40;55.00;;;;;;5042878;28;19955;-64
2021/12/26 01:27:27;;;;;;;;;;;20.40;55.00;;;;;;5045320;28;19909;-66
2021/12/26 01:29:53;;;;;;;;;;;20.40;55.00;;;;;;5043298;28;20607;-62
2021/12/26 01:32:19;;;;;;;;;;;20.40;55.00;;;;;;5040463;28;20008;-64
2021/12/26 01:34:45;;;;;;;;;;;20.40;55.00;;;;;;5042992;28;20394;-64
2021/12/26 01:37:11;;;;;;;;;;;20.40;55.00;;;;;;5041693;28;19949;-67
2021/12/26 01:39:36;;;;;;;;;;;20.40;55.00;;;;;;5043739;28;19947;-65
2021/12/26 01:42:03;;;;;;;;;;;20.40;55.00;;;;;;5042811;28;19908;-66
2021/12/26 01:44:29;;;;;;;;;;;20.30;54.90;;;;;;5041849;28;20003;-64
2021/12/26 01:46:54;;;;;;;;;;;20.40;55.00;;;;;;5040898;28;19909;-66
2021/12/26 01:49:22;;;;;;;;;;;20.30;54.90;;;;;;5041562;28;20510;-63
2021/12/26 01:51:49;;;;;;;;;;;20.40;54.90;;;;;;5042062;28;19917;-64
2021/12/26 01:54:26;;;;;;;;;;;20.30;54.90;;;;;;5043592;28;19942;-67
2021/12/26 01:56:51;;;;;;;;;;;20.30;54.90;;;;;;5043082;28;19912;-65
2021/12/26 01:59:17;;;;;;;;;;;20.30;54.90;;;;;;5040059;28;19917;-67
2021/12/26 02:01:42;;;;;;;;;;;20.30;54.90;;;;;;5040084;28;19990;-67
2021/12/26 02:04:08;;;;;;;;;;;20.30;54.90;;;;;;5039803;28;19944;-63
2021/12/26 02:06:34;;;;;;;;;;;20.30;54.80;;;;;;5039769;28;19909;-65
2021/12/26 02:08:59;;;;;;;;;;;20.30;54.80;;;;;;5043378;28;19999;-65
2021/12/26 02:11:25;;;;;;;;;;;20.30;54.80;;;;;;5043473;28;20264;-65
2021/12/26 02:13:50;;;;;;;;;;;20.30;54.80;;;;;;5044470;28;19917;-67
2021/12/26 02:16:16;;;;;;;;;;;20.30;54.80;;;;;;5043122;28;19943;-65
2021/12/26 02:18:42;;;;;;;;;;;20.30;54.80;;;;;;5041263;28;19991;-67
2021/12/26 02:23:47;;;;;;;;;;;20.30;54.80;;;;;;5040985;28;19917;-65
2021/12/26 02:28:47;;;;;;;;;;;20.30;54.80;;;;;;5043062;28;20007;-65
2021/12/26 02:31:14;;;;;;;;;;;20.30;54.80;;;;;;5041567;28;20032;-66
2021/12/26 02:33:39;;;;;;;;;;;20.20;54.80;;;;;;5044178;28;19966;-66
2021/12/26 02:36:05;;;;;;;;;;;20.30;54.80;;;;;;5040608;28;20335;-64
2021/12/26 02:38:31;;;;;;;;;;;20.20;54.80;;;;;;5041781;28;19909;-63
2021/12/26 02:40:57;;;;;;;;;;;20.20;54.80;;;;;;5038382;28;19913;-64
2021/12/26 02:43:23;;;;;;;;;;;20.20;54.80;;;;;;5038965;28;20396;-65
2021/12/26 02:45:49;;;;;;;;;;;20.20;54.70;;;;;;5042239;28;19912;-67
2021/12/26 02:48:15;;;;;;;;;;;20.20;54.70;;;;;;5042269;28;19913;-65
2021/12/26 02:50:41;;;;;;;;;;;20.20;54.70;;;;;;5039215;28;20389;-67
2021/12/26 02:53:08;;;;;;;;;;;20.20;54.70;;;;;;5041383;28;19913;-63
2021/12/26 02:55:34;;;;;;;;;;;20.20;54.70;;;;;;5043982;28;19916;-67
2021/12/26 02:58:01;;;;;;;;;;;20.20;54.70;;;;;;5048925;28;19988;-64
2021/12/26 03:00:28;;;;;;;;;;;20.20;54.70;;;;;;5044004;28;19995;-67
2021/12/26 03:02:54;;;;;;;;;;;20.20;54.70;;;;;;5044164;28;20296;-67
2021/12/26 03:05:21;;;;;;;;;;;20.20;54.80;;;;;;5043759;28;20363;-64
2021/12/26 03:07:47;;;;;;;;;;;20.20;54.70;;;;;;5044604;28;20027;-64
2021/12/26 03:10:21;;;;;;;;;;;20.20;54.70;;;;;;5050455;28;19924;-63
2021/12/26 03:12:47;;;;;;;;;;;20.20;54.70;;;;;;5044564;28;19932;-67
2021/12/26 03:15:12;;;;;;;;;;;20.20;54.70;;;;;;5048145;28;20310;-66
2021/12/26 03:17:38;;;;;;;;;;;20.20;54.70;;;;;;5048162;28;19924;-64
2021/12/26 03:20:14;;;;;;;;;;;20.10;54.60;;;;;;5046810;28;20299;-65
2021/12/26 03:22:40;;;;;;;;;;;20.10;54.60;;;;;;5044022;28;19920;-66
2021/12/26 03:25:09;;;;;;;;;;;20.10;54.60;;;;;;5047080;28;19912;-64
2021/12/26 03:27:35;;;;;;;;;;;20.10;54.60;;;;;;5044918;28;19935;-66
2021/12/26 03:30:00;;;;;;;;;;;20.10;54.60;;;;;;5046602;28;19912;-65
2021/12/26 03:32:26;;;;;;;;;;;20.10;54.60;;;;;;5046562;28;19959;-64
2021/12/26 03:34:51;;;;;;;;;;;20.10;54.60;;;;;;5041578;28;19909;-66
2021/12/26 03:37:17;;;;;;;;;;;20.10;54.60;;;;;;5045145;28;19974;-67
2021/12/26 03:39:43;;;;;;;;;;;20.10;54.60;;;;;;5045437;28;19944;-66
2021/12/26 03:42:09;;;;;;;;;;;20.10;54.60;;;;;;5045572;28;19920;-67
2021/12/26 03:44:35;;;;;;;;;;;20.10;54.60;;;;;;5045831;28;19952;-66
2021/12/26 03:47:00;;;;;;;;;;;20.10;54.60;;;;;;5046235;28;19986;-63
2021/12/26 03:49:27;;;;;;;;;;;20.10;54.60;;;;;;5043558;28;20348;-64
2021/12/26 03:51:52;;;;;;;;;;;20.10;54.60;;;;;;5045833;28;19919;-67
2021/12/26 03:54:18;;;;;;;;;;;20.10;54.60;;;;;;5045455;28;19913;-64
2021/12/26 03:56:43;;;;;;;;;;;20.10;54.60;;;;;;5045067;28;19913;-65
2021/12/26 03:59:09;;;;;;;;;;;20.10;54.60;;;;;;5046856;28;19912;-64
2021/12/26 04:01:35;;;;;;;;;;;20.10;54.60;;;;;;5043706;28;19925;-64
2021/12/26 04:04:00;;;;;;;;;;;20.10;54.60;;;;;;5043717;28;19908;-66
2021/12/26 04:06:26;;;;;;;;;;;20.00;54.50;;;;;;5041360;28;19917;-66
2021/12/26 04:08:51;;;;;;;;;;;20.10;54.60;;;;;;5047419;28;19908;-64
2021/12/26 04:11:17;;;;;;;;;;;20.10;54.60;;;;;;5046245;28;19909;-67
2021/12/26 04:13:43;;;;;;;;;;;20.10;54.60;;;;;;5042610;28;19916;-67
2021/12/26 04:16:08;;;;;;;;;;;20.00;54.60;;;;;;5046910;28;19920;-67
2021/12/26 04:18:34;;;;;;;;;;;20.00;54.60;;;;;;5045487;28;19919;-64
2021/12/26 04:20:59;;;;;;;;;;;20.00;54.60;;;;;;5044708;28;19913;-64
2021/12/26 04:23:25;;;;;;;;;;;20.00;54.60;;;;;;5044344;28;19974;-63
2021/12/26 04:25:51;;;;;;;;;;;20.00;54.60;;;;;;5044251;28;19990;-67
2021/12/26 04:28:19;;;;;;;;;;;20.00;54.60;;;;;;5046431;28;19988;-64
2021/12/26 04:30:46;;;;;;;;;;;20.00;54.60;;;;;;5040612;28;19921;-64
2021/12/26 04:33:11;;;;;;;;;;;20.00;54.60;;;;;;5045446;28;20000;-64
2021/12/26 04:35:37;;;;;;;;;;;19.90;54.60;;;;;;5044668;28;20467;-63
2021/12/26 04:38:02;;;;;;;;;;;20.00;54.70;;;;;;5042207;28;19940;-67
2021/12/26 04:40:28;;;;;;;;;;;19.90;54.60;;;;;;5042916;28;19916;-63
2021/12/26 04:42:54;;;;;;;;;;;19.90;54.60;;;;;;5045495;28;19913;-65
2021/12/26 04:45:20;;;;;;;;;;;19.90;54.60;;;;;;5042439;28;20270;-64
2021/12/26 04:47:45;;;;;;;;;;;19.90;54.70;;;;;;5043714;28;20030;-66
2021/12/26 04:50:16;;;;;;;;;;;19.90;54.70;;;;;;5043894;28;19916;-64
2021/12/26 04:52:43;;;;;;;;;;;19.90;54.70;;;;;;5042580;28;20253;-64
2021/12/26 04:55:09;;;;;;;;;;;19.90;54.70;;;;;;5041825;28;19912;-67
2021/12/26 04:57:35;;;;;;;;;;;19.90;54.70;;;;;;5040861;28;20007;-65
2021/12/26 05:00:02;;;;;;;;;;;19.90;54.70;;;;;;5045221;28;19915;-67
2021/12/26 05:02:29;;;;;;;;;;;19.90;54.70;;;;;;5045017;28;19956;-67
2021/12/26 05:04:55;;;;;;;;;;;19.90;54.70;;;;;;5041042;28;19943;-66
2021/12/26 05:07:20;;;;;;;;;;;19.90;54.70;;;;;;5041428;28;19913;-67
2021/12/26 05:09:46;;;;;;;;;;;19.90;54.70;;;;;;5046339;28;19920;-65
2021/12/26 05:12:12;;;;;;;;;;;19.90;54.70;;;;;;5043043;28;19917;-66
2021/12/26 05:14:37;;;;;;;;;;;19.90;54.70;;;;;;5043449;28;20694;-66
2021/12/26 05:17:03;;;;;;;;;;;19.90;54.70;;;;;;5043526;28;20050;-65
2021/12/26 05:19:29;;;;;;;;;;;19.90;54.70;;;;;;5041881;28;19990;-66
2021/12/26 05:21:54;;;;;;;;;;;19.90;54.70;;;;;;5041157;28;20706;-67
2021/12/26 05:24:19;;;;;;;;;;;19.90;54.70;;;;;;5042160;28;19936;-65
2021/12/26 05:26:45;;;;;;;;;;;19.90;54.70;;;;;;5041810;28;20133;-65
2021/12/26 05:29:11;;;;;;;;;;;19.90;54.70;;;;;;5045448;28;19913;-64
2021/12/26 05:31:36;;;;;;;;;;;19.90;54.70;;;;;;5042048;28;20244;-65
2021/12/26 05:34:02;;;;;;;;;;;19.90;54.70;;;;;;5045156;28;20400;-65
2021/12/26 05:36:28;;;;;;;;;;;19.90;54.70;;;;;;5043175;28;20009;-64
2021/12/26 05:38:54;;;;;;;;;;;19.90;54.70;;;;;;5046363;28;19988;-65
2021/12/26 05:41:19;;;;;;;;;;;19.90;54.70;;;;;;5041799;28;19912;-66
2021/12/26 05:43:45;;;;;;;;;;;19.90;54.70;;;;;;5041143;28;20339;-64
2021/12/26 05:46:11;;;;;;;;;;;19.90;54.70;;;;;;5040093;28;19912;-67
2021/12/26 05:48:36;;;;;;;;;;;19.90;54.70;;;;;;5045597;28;19920;-63
2021/12/26 05:51:02;;;;;;;;;;;19.90;54.70;;;;;;5045297;28;19971;-65
2021/12/26 05:53:27;;;;;;;;;;;19.80;54.60;;;;;;5038586;28;19909;-65
2021/12/26 05:55:53;;;;;;;;;;;19.80;54.60;;;;;;5042661;28;19953;-65
2021/12/26 05:58:18;;;;;;;;;;;19.80;54.60;;;;;;5043407;28;19916;-65
2021/12/26 06:00:44;;;;;;;;;;;19.90;54.70;;;;;;5042001;28;19939;-66
2021/12/26 06:03:09;;;;;;;;;;;19.80;54.60;;;;;;5040134;28;19958;-63
2021/12/26 06:05:35;;;;;;;;;;;19.80;54.60;;;;;;5041945;28;19913;-64
2021/12/26 06:08:00;;;;;;;;;;;19.80;54.60;;;;;;5041581;28;19923;-64
2021/12/26 06:10:26;;;;;;;;;;;19.80;54.60;;;;;;5044814;28;20501;-66
2021/12/26 06:12:52;;;;;;;;;;;19.80;54.60;;;;;;5042905;28;19912;-65
2021/12/26 06:15:18;;;;;;;;;;;19.80;54.60;;;;;;5043121;28;19905;-65
2021/12/26 06:17:43;;;;;;;;;;;19.80;54.60;;;;;;5041766;28;20426;-66
2021/12/26 06:20:14;;;;;;;;;;;19.80;54.60;;;;;;5039066;28;20385;-65
2021/12/26 06:22:44;;;;;;;;;;;19.80;54.60;;;;;;5034877;28;19916;-63
2021/12/26 06:25:10;;;;;;;;;;;19.80;54.60;;;;;;5039615;28;19921;-67
2021/12/26 06:27:36;;;;;;;;;;;19.80;54.60;;;;;;5041445;28;20524;-65
2021/12/26 06:30:03;;;;;;;;;;;19.80;54.60;;;;;;5041651;28;20027;-65
2021/12/26 06:32:28;;;;;;;;;;;19.80;54.60;;;;;;5039711;28;20033;-64
2021/12/26 06:34:54;;;;;;;;;;;19.80;54.60;;;;;;5036236;28;19940;-64
2021/12/26 06:37:19;;;;;;;;;;;19.80;55.10;;;;;;5038764;28;19908;-62
2021/12/26 06:39:45;;;;;;;;;;;19.80;54.60;;;;;;5043340;28;19905;-64
2021/12/26 06:42:10;;;;;;;;;;;19.80;54.60;;;;;;5042913;28;19916;-64
2021/12/26 06:44:36;;;;;;;;;;;19.80;54.60;;;;;;5041390;28;20367;-64
2021/12/26 06:47:02;;;;;;;;;;;19.80;55.10;;;;;;5037779;28;19909;-66
2021/12/26 06:49:27;;;;;;;;;;;19.80;54.60;;;;;;5041600;28;19985;-66
2021/12/26 06:51:53;;;;;;;;;;;19.80;54.60;;;;;;5039811;28;19908;-64
2021/12/26 06:54:18;;;;;;;;;;;19.80;54.60;;;;;;5044941;28;19948;-64
2021/12/26 06:56:44;;;;;;;;;;;19.80;54.60;;;;;;5044740;28;19904;-65
2021/12/26 06:59:09;;;;;;;;;;;19.80;54.60;;;;;;5043258;28;19962;-64
2021/12/26 07:01:35;;;;;;;;;;;19.80;54.60;;;;;;5041147;28;19917;-65
2021/12/26 07:04:01;;;;;;;;;;;19.80;54.60;;;;;;5043713;28;20326;-62
2021/12/26 07:06:26;;;;;;;;;;;19.80;54.60;;;;;;5042858;28;19917;-63
2021/12/26 07:08:52;;;;;;;;;;;19.80;54.60;;;;;;5044022;28;19909;-65
2021/12/26 07:11:17;;;;;;;;;;;19.80;54.60;;;;;;5038264;28;19936;-65
2021/12/26 07:13:43;;;;;;;;;;;19.80;54.60;;;;;;5038301;28;19912;-65
2021/12/26 07:16:08;;;;;;;;;;;19.80;54.60;;;;;;5042997;28;19917;-63
2021/12/26 07:18:34;;;;;;;;;;;19.80;54.60;;;;;;5041541;28;19921;-66
2021/12/26 07:20:59;;;;;;;;;;;19.80;54.60;;;;;;5039564;28;19912;-66
2021/12/26 07:23:25;;;;;;;;;;;19.80;54.60;;;;;;5037039;28;20003;-63
2021/12/26 07:25:50;;;;;;;;;;;19.80;54.60;;;;;;5043494;28;19912;-65
2021/12/26 07:28:16;;;;;;;;;;;19.80;54.60;;;;;;5043558;28;19905;-67
2021/12/26 07:30:42;;;;;;;;;;;19.80;54.60;;;;;;5040634;28;19916;-66
2021/12/26 07:33:07;;;;;;;;;;;19.80;54.60;;;;;;5042492;28;19916;-66
2021/12/26 07:35:33;;;;;;;;;;;19.80;54.60;;;;;;5041553;28;19939;-67
2021/12/26 07:37:58;;;;;;;;;;;19.80;54.60;;;;;;5040935;28;19919;-67
2021/12/26 07:40:24;;;;;;;;;;;19.80;54.50;;;;;;5045350;28;19908;-64
2021/12/26 07:42:50;;;;;;;;;;;19.80;54.60;;;;;;5043190;28;19935;-66
2021/12/26 07:45:15;;;;;;;;;;;19.80;54.50;;;;;;5047899;28;19916;-66
2021/12/26 07:47:41;;;;;;;;;;;19.80;54.50;;;;;;5045814;28;19952;-65
2021/12/26 07:50:07;;;;;;;;;;;19.80;54.50;;;;;;5040634;28;19916;-65
2021/12/26 07:52:37;;;;;;;;;;;19.80;54.50;;;;;;5044676;28;19936;-66
2021/12/26 07:55:03;;;;;;;;;;;19.80;54.50;;;;;;5046885;28;19909;-66
2021/12/26 07:57:29;;;;;;;;;;;19.80;54.50;;;;;;5042981;28;20379;-66
2021/12/26 07:59:55;;;;;;;;;;;19.80;54.50;;;;;;5046819;28;19916;-64
2021/12/26 08:02:20;;;;;;;;;;;19.80;54.50;;;;;;5045730;28;19923;-67
2021/12/26 08:04:46;;;;;;;;;;;19.80;54.50;;;;;;5040123;28;19909;-67
2021/12/26 08:07:12;;;;;;;;;;;19.80;54.50;;;;;;5043611;28;19952;-62
2021/12/26 08:09:37;;;;;;;;;;;19.80;54.50;;;;;;5048006;28;19971;-64
2021/12/26 08:12:03;;;;;;;;;;;19.80;54.50;;;;;;5044883;28;19925;-65
2021/12/26 08:14:28;;;;;;;;;;;19.70;54.40;;;;;;5046375;28;20277;-65
2021/12/26 08:16:54;;;;;;;;;;;19.70;54.40;;;;;;5045774;28;19935;-67
2021/12/26 08:19:20;;;;;;;;;;;19.70;54.40;;;;;;5044346;28;20324;-67
2021/12/26 08:21:45;;;;;;;;;;;19.70;54.40;;;;;;5044234;28;19951;-66
2021/12/26 08:24:11;;;;;;;;;;;19.70;54.40;;;;;;5044317;28;19905;-64
2021/12/26 08:26:37;;;;;;;;;;;19.70;54.40;;;;;;5042890;28;19985;-68
2021/12/26 08:29:02;;;;;;;;;;;19.70;54.40;;;;;;5047817;28;20024;-67
2021/12/26 08:31:29;;;;;;;;;;;19.70;54.40;;;;;;5040690;28;19944;-67
2021/12/26 08:33:54;;;;;;;;;;;19.70;54.40;;;;;;5040158;28;19912;-65
2021/12/26 08:36:20;;;;;;;;;;;19.70;54.40;;;;;;5043466;28;19913;-63
2021/12/26 08:38:46;;;;;;;;;;;19.70;54.40;;;;;;5048074;28;19974;-64
2021/12/26 08:41:12;;;;;;;;;;;19.70;54.40;;;;;;5044966;28;19917;-65
2021/12/26 08:43:37;;;;;;;;;;;19.70;54.40;;;;;;5044220;28;20030;-67
2021/12/26 08:46:03;;;;;;;;;;;19.70;54.40;;;;;;5039013;28;19912;-64
2021/12/26 08:48:29;;;;;;;;;;;19.70;54.40;;;;;;5043868;28;19909;-64
2021/12/26 08:50:55;;;;;;;;;;;19.70;54.50;;;;;;5043228;28;19916;-66
2021/12/26 08:53:25;;;;;;;;;;;19.70;54.60;;;;;;5041382;28;19913;-64
2021/12/26 08:55:50;;;;;;;;;;;19.70;54.70;;;;;;5043186;28;20339;-65
2021/12/26 08:58:16;;;;;;;;;;;19.70;54.70;;;;;;5044477;28;19959;-65
2021/12/26 09:00:42;;;;;;;;;;;19.80;54.80;;;;;;5039222;28;20420;-66
2021/12/26 09:03:08;;;;;;;;;;;19.70;54.80;;;;;;5041011;28;19908;-67
2021/12/26 09:05:33;;;;;;;;;;;19.70;54.90;;;;;;5042276;28;19955;-65
2021/12/26 09:07:59;;;;;;;;;;;19.70;55.00;;;;;;5043331;28;20455;-65
2021/12/26 09:10:24;;;;;;;;;;;19.70;55.10;;;;;;5045782;28;20007;-66
2021/12/26 09:12:50;;;;;;;;;;;19.80;55.10;;;;;;5044816;28;19913;-66
2021/12/26 09:15:15;;;;;;;;;;;19.70;55.10;;;;;;5044903;28;19915;-67
2021/12/26 09:17:42;;;;;;;;;;;19.70;55.10;;;;;;5045432;28;19955;-66
2021/12/26 09:20:08;;;;;;;;;;;19.70;55.10;;;;;;5041467;28;20519;-65
2021/12/26 09:22:34;;;;;;;;;;;19.70;55.10;;;;;;5040191;28;19994;-66
2021/12/26 09:24:59;;;;;;;;;;;19.70;55.30;;;;;;5043471;28;20698;-67
2021/12/26 09:27:25;;;;;;;;;;;19.80;55.50;;;;;;5044666;28;19908;-66
2021/12/26 09:29:50;;;;;;;;;;;19.80;55.50;;;;;;5045866;28;19916;-65
2021/12/26 09:32:16;;;;;;;;;;;19.70;55.40;;;;;;5039783;28;19917;-67
2021/12/26 09:34:42;;;;;;;;;;;19.70;55.40;;;;;;5041433;28;19916;-64
2021/12/26 09:37:08;;;;;;;;;;;19.70;55.40;;;;;;5040217;28;19974;-67
2021/12/26 09:39:34;;;;;;;;;;;19.80;55.50;;;;;;5044166;28;20296;-67
2021/12/26 09:42:00;;;;;;;;;;;19.70;55.40;;;;;;5040265;28;19915;-66
2021/12/26 09:44:25;;;;;;;;;;;19.70;55.50;;;;;;5039515;28;20335;-66
2021/12/26 09:46:51;;;;;;;;;;;19.70;55.40;;;;;;5041881;28;20398;-67
2021/12/26 09:49:16;;;;;;;;;;;19.70;55.50;;;;;;5045050;28;19913;-66
2021/12/26 09:51:42;;;;;;;;;;;19.80;55.60;;;;;;5042280;28;19919;-67
2021/12/26 09:54:08;;;;;;;;;;;19.80;55.60;;;;;;5043488;28;20351;-66
2021/12/26 09:56:34;;;;;;;;;;;19.70;55.50;;;;;;5044262;28;20004;-65
2021/12/26 09:59:04;;;;;;;;;;;19.80;55.70;;;;;;5044001;28;20003;-67
2021/12/26 10:01:32;;;;;;;;;;;19.80;55.70;;;;;;5040425;28;19920;-65
2021/12/26 10:04:02;;;;;;;;;;;19.80;55.80;;;;;;5041299;28;19916;-68
2021/12/26 10:06:31;;;;;;;;;;;19.80;55.80;;;;;;5038191;28;19919;-66
2021/12/26 10:08:58;;;;;;;;;;;19.80;55.90;;;;;;5037769;28;20214;-66
2021/12/26 10:11:28;;;;;;;;;;;19.80;55.90;;;;;;5039611;28;20538;-62
2021/12/26 10:13:56;;;;;;;;;;;19.80;55.80;;;;;;5038980;28;19956;-67
2021/12/26 10:16:23;;;;;;;;;;;19.80;55.80;;;;;;5044240;28;19975;-63
2021/12/26 10:18:49;;;;;;;;;;;19.80;55.80;;;;;;5042216;28;19913;-66
2021/12/26 10:21:21;;;;;;;;;;;19.80;55.70;;;;;;5038010;28;19912;-66
2021/12/26 10:23:46;;;;;;;;;;;19.70;55.60;;;;;;5043678;28;20313;-64
2021/12/26 10:26:26;;;;;;;;;;;19.80;55.60;;;;;;5044526;28;19915;-66
2021/12/26 10:29:10;;;;;;;;;;;19.80;55.60;;;;;;5045246;28;19916;-64
2021/12/26 10:31:37;;;;;;;;;;;19.80;55.60;;;;;;5043016;28;19928;-67
2021/12/26 10:34:03;;;;;;;;;;;19.80;55.70;;;;;;5032613;28;19913;-66
2021/12/26 10:36:28;;;;;;;;;;;19.80;55.60;;;;;;5039681;28;19999;-66
2021/12/26 10:39:12;;;;;;;;;;;19.80;55.70;;;;;;5045091;28;20003;-65
2021/12/26 10:41:57;;;;;;;;;;;19.80;55.80;;;;;;5042589;28;20470;-67
2021/12/26 10:44:25;;;;;;;;;;;19.70;56.00;;;;;;5042245;28;19962;-65
2021/12/26 10:46:53;;;;;;;;;;;19.80;55.80;;;;;;5035847;28;19913;-66
2021/12/26 10:49:26;;;;;;;;;;;19.80;55.70;;;;;;5045243;28;20399;-65
2021/12/26 10:51:52;;;;;;;;;;;19.80;55.70;;;;;;5042364;28;20015;-65
2021/12/26 10:54:19;;;;;;;;;;;19.80;55.80;;;;;;5043821;28;20433;-67
2021/12/26 10:57:03;;;;;;;;;;;19.80;55.80;;;;;;5045276;28;19920;-64
2021/12/26 10:59:28;;;;;;;;;;;19.70;55.70;;;;;;5045331;28;19916;-66
2021/12/26 11:01:56;;;;;;;;;;;19.80;55.80;;;;;;5043422;28;20261;-65
2021/12/26 11:04:25;;;;;;;;;;;19.80;55.80;;;;;;5044555;28;19912;-67
2021/12/26 11:07:08;;;;;;;;;;;19.80;55.80;;;;;;5042290;28;20038;-67
2021/12/26 11:09:34;;;;;;;;;;;19.80;55.80;;;;;;5041879;28;19916;-67
2021/12/26 11:12:07;;;;;;;;;;;19.80;55.80;;;;;;5043256;28;20297;-65
2021/12/26 11:14:53;;;;;;;;;;;19.80;55.80;;;;;;5044322;28;20396;-66
2021/12/26 11:17:32;;;;;;;;;;;19.80;55.80;;;;;;5042022;28;19908;-67
2021/12/26 11:19:58;;;;;;;;;;;19.80;55.80;;;;;;5047431;28;19932;-67
2021/12/26 11:22:24;;;;;;;;;;;19.80;55.80;;;;;;5044629;28;20378;-65
2021/12/26 11:24:50;;;;;;;;;;;19.80;55.90;;;;;;5046148;28;19909;-64
2021/12/26 11:27:15;;;;;;;;;;;19.80;55.80;;;;;;5049021;28;19999;-67
2021/12/26 11:29:41;;;;;;;;;;;19.80;55.80;;;;;;5045056;28;20019;-67
2021/12/26 11:32:07;;;;;;;;;;;19.80;55.90;;;;;;5045619;28;19970;-63
2021/12/26 11:34:33;;;;;;;;;;;19.80;55.80;;;;;;5044858;28;19912;-67
2021/12/26 11:36:59;;;;;;;;;;;19.80;55.80;;;;;;5041153;28;19916;-67
2021/12/26 11:39:25;;;;;;;;;;;19.80;55.90;;;;;;5049450;28;20265;-67
2021/12/26 11:42:05;;;;;;;;;;;19.70;55.80;;;;;;5044686;28;20007;-67
2021/12/26 11:44:31;;;;;;;;;;;19.80;55.90;;;;;;5045884;28;20420;-67
2021/12/26 11:47:14;;;;;;;;;;;19.80;55.90;;;;;;5045068;28;19917;-64
2021/12/26 11:49:40;;;;;;;;;;;19.80;55.90;;;;;;5048052;28;19919;-67
2021/12/26 11:52:06;;;;;;;;;;;19.80;56.00;;;;;;5046782;28;20377;-66
2021/12/26 11:54:33;;;;;;;;;;;19.80;56.00;;;;;;5047137;28;20661;-64
2021/12/26 11:56:59;;;;;;;;;;;19.80;56.00;;;;;;5048488;28;19909;-67
2021/12/26 11:59:47;;;;;;;;;;;19.80;56.00;;;;;;5047956;28;19912;-66
2021/12/26 12:02:13;;;;;;;;;;;19.80;56.00;;;;;;5045072;28;20026;-63
2021/12/26 12:04:38;;;;;;;;;;;19.80;56.10;;;;;;5047198;28;19913;-67
2021/12/26 12:07:05;;;;;;;;;;;19.80;56.10;;;;;;5046003;28;20319;-62
2021/12/26 12:09:32;;;;;;;;;;;19.80;56.10;;;;;;5044612;28;19964;-68
2021/12/26 12:12:06;;;;;;;;;;;19.70;56.00;;;;;;5044544;28;19975;-66
2021/12/26 12:14:55;;;;;;;;;;;19.70;56.10;;;;;;5044430;28;20827;-66
2021/12/26 12:17:22;;;;;;;;;;;19.70;56.20;;;;;;5041377;28;19927;-67
2021/12/26 12:20:07;;;;;;;;;;;19.70;56.10;;;;;;5045843;28;20625;-66
2021/12/26 12:22:32;;;;;;;;;;;19.70;56.10;;;;;;5041459;28;20004;-63
2021/12/26 12:25:18;;;;;;;;;;;19.70;56.10;;;;;;5047067;28;19999;-64
2021/12/26 12:28:02;;;;;;;;;;;19.70;56.10;;;;;;5045729;28;20703;-68
2021/12/26 12:30:27;;;;;;;;;;;19.70;56.10;;;;;;5047206;28;20019;-64
2021/12/26 12:33:13;;;;;;;;;;;19.70;56.20;;;;;;5046856;28;20020;-67
2021/12/26 12:35:48;;;;;;;;;;;19.70;56.10;;;;;;5045993;28;19985;-63
2021/12/26 12:38:30;;;;;;;;;;;19.70;56.20;;;;;;5044738;28;19916;-65
2021/12/26 12:40:56;;;;;;;;;;;19.70;56.10;;;;;;5046460;28;19912;-63
2021/12/26 12:43:24;;;;;;;;;;;19.70;56.20;;;;;;5048227;28;19909;-67
2021/12/26 12:45:53;;;;;;;;;;;19.70;56.20;;;;;;5044216;28;19909;-67
2021/12/26 12:48:30;;;;;;;;;;;19.70;56.20;;;;;;5042086;28;19958;-64
2021/12/26 12:50:57;;;;;;;;;;;19.70;56.20;;;;;;5046304;28;19920;-67
2021/12/26 12:53:41;;;;;;;;;;;19.70;56.30;;;;;;5043155;28;19996;-64
2021/12/26 12:56:08;;;;;;;;;;;19.70;56.30;;;;;;5045092;28;19912;-66
2021/12/26 12:58:36;;;;;;;;;;;19.70;56.30;;;;;;5045320;28;19928;-65
2021/12/26 13:01:05;;;;;;;;;;;19.70;56.20;;;;;;5043633;28;19988;-65
2021/12/26 13:03:34;;;;;;;;;;;19.70;56.30;;;;;;5041453;28;19944;-64
2021/12/26 13:06:09;;;;;;;;;;;19.70;56.30;;;;;;5046221;28;19916;-64
2021/12/26 13:08:34;;;;;;;;;;;19.70;56.20;;;;;;5045461;28;19951;-63
2021/12/26 13:11:02;;;;;;;;;;;19.70;56.30;;;;;;5050109;28;19967;-63
2021/12/26 13:13:27;;;;;;;;;;;19.70;56.20;;;;;;5046791;28;19919;-66
2021/12/26 13:15:55;;;;;;;;;;;19.70;56.30;;;;;;5045955;28;19905;-65
2021/12/26 13:18:22;;;;;;;;;;;19.70;56.30;;;;;;5046670;28;19933;-63
2021/12/26 13:20:48;;;;;;;;;;;19.70;56.30;;;;;;5046156;28;19919;-65
2021/12/26 13:23:14;;;;;;;;;;;19.70;56.30;;;;;;5038506;28;19905;-66
2021/12/26 13:25:41;;;;;;;;;;;19.70;56.30;;;;;;5046004;28;19913;-65
2021/12/26 13:28:15;;;;;;;;;;;19.70;56.30;;;;;;5047482;28;19912;-64
2021/12/26 13:30:44;;;;;;;;;;;19.70;56.40;;;;;;5045394;28;20450;-63
2021/12/26 13:33:16;;;;;;;;;;;19.70;56.30;;;;;;5041105;28;19909;-66
2021/12/26 13:35:42;;;;;;;;;;;19.70;56.30;;;;;;5043450;28;19923;-64
2021/12/26 13:38:08;;;;;;;;;;;19.70;56.40;;;;;;5042980;28;19904;-67
2021/12/26 13:40:35;;;;;;;;;;;19.70;56.40;;;;;;5042723;28;19919;-67
2021/12/26 13:43:00;;;;;;;;;;;19.70;56.40;;;;;;5046313;28;19904;-63
2021/12/26 13:45:33;;;;;;;;;;;19.60;56.40;;;;;;5044003;28;19921;-64
2021/12/26 13:47:58;;;;;;;;;;;19.70;56.30;;;;;;5035057;28;19936;-67
2021/12/26 13:50:24;;;;;;;;;;;19.70;56.30;;;;;;5041555;28;20014;-66
2021/12/26 13:52:59;;;;;;;;;;;19.70;56.30;;;;;;5043589;28;19911;-67
2021/12/26 13:55:25;;;;;;;;;;;19.70;56.40;;;;;;5040732;28;20348;-65
2021/12/26 13:58:00;;;;;;;;;;;19.70;56.30;;;;;;5044993;28;19995;-66
2021/12/26 14:00:26;;;;;;;;;;;19.70;56.40;;;;;;5043949;28;19961;-64
2021/12/26 14:02:52;;;;;;;;;;;19.70;56.40;;;;;;5044263;28;20019;-64
2021/12/26 14:05:20;;;;;;;;;;;19.70;56.40;;;;;;5043737;28;20493;-65
2021/12/26 14:07:51;;;;;;;;;;;19.60;56.30;;;;;;5043600;28;19996;-65
2021/12/26 14:10:21;;;;;;;;;;;19.60;56.40;;;;;;5046638;28;19917;-65
2021/12/26 14:12:49;;;;;;;;;;;19.60;56.40;;;;;;5045775;28;19916;-67
2021/12/26 14:15:45;;;;;;;;;;;19.60;56.40;;;;;;5044807;28;19916;-66
2021/12/26 14:18:15;;;;;;;;;;;19.60;56.40;;;;;;5035376;28;20312;-64
2021/12/26 14:20:47;;;;;;;;;;;19.60;56.40;;;;;;5043803;28;19967;-64
2021/12/26 14:23:15;;;;;;;;;;;19.60;56.40;;;;;;5036136;28;19913;-65